sensor_id;sensor_type;location;lat;lon;timestamp;temperature;humidity
27026;DHT22;14565;48.626;8.978;2023-03-11T00:01:27;1.40;99.90
27026;DHT22;14565;48.626;8.978;2023-03-11T00:03:53;1.30;99.90
27026;DHT22;14565;48.626;8.978;2023-03-11T00:06:19;1.40;99.90
27026;DHT22;14565;48.626;8.978;2023-03-11T00:08:44;1.40;99.90
27026;DHT22;14565;48.626;8.978;2023-03-11T00:11:10;1.40;99.90
27026;DHT22;14565;48.626;8.978;2023-03-11T00:13:36;1.30;99.90
27026;DHT22;14565;48.626;8.978;2023-03-11T00:16:02;1.30;99.90
27026;DHT22;14565;48.626;8.978;2023-03-11T00:18:28;1.30;99.90
27026;DHT22;14565;48.626;8.978;2023-03-11T00:20:57;1.40;99.90
27026;DHT22;14565;48.626;8.978;2023-03-11T00:23:24;1.40;99.90
27026;DHT22;14565;48.626;8.978;2023-03-11T00:25:51;1.40;99.90
27026;DHT22;14565;48.626;8.978;2023-03-11T00:28:17;1.40;99.90
27026;DHT22;14565;48.626;8.978;2023-03-11T00:30:44;1.50;99.90
27026;DHT22;14565;48.626;8.978;2023-03-11T00:33:12;1.50;99.90
27026;DHT22;14565;48.626;8.978;2023-03-11T00:35:37;1.60;99.90
27026;DHT22;14565;48.626;8.978;2023-03-11T00:38:06;1.60;99.90
27026;DHT22;14565;48.626;8.978;2023-03-11T00:40:32;1.60;99.90
27026;DHT22;14565;48.626;8.978;2023-03-11T00:42:58;1.60;99.90
27026;DHT22;14565;48.626;8.978;2023-03-11T00:45:24;1.60;99.90
27026;DHT22;14565;48.626;8.978;2023-03-11T00:47:51;1.60;99.90
27026;DHT22;14565;48.626;8.978;2023-03-11T00:50:22;1.70;99.90
27026;DHT22;14565;48.626;8.978;2023-03-11T00:52:48;1.70;99.90
27026;DHT22;14565;48.626;8.978;2023-03-11T00:55:18;1.70;99.90
27026;DHT22;14565;48.626;8.978;2023-03-11T00:57:44;1.70;99.90
27026;DHT22;14565;48.626;8.978;2023-03-11T01:00:15;1.70;99.90
27026;DHT22;14565;48.626;8.978;2023-03-11T01:02:41;1.70;99.90
27026;DHT22;14565;48.626;8.978;2023-03-11T01:05:07;1.70;99.90
27026;DHT22;14565;48.626;8.978;2023-03-11T01:07:33;1.70;99.90
27026;DHT22;14565;48.626;8.978;2023-03-11T01:09:59;1.80;99.90
27026;DHT22;14565;48.626;8.978;2023-03-11T01:12:25;1.80;99.90
27026;DHT22;14565;48.626;8.978;2023-03-11T01:14:51;1.80;99.90
27026;DHT22;14565;48.626;8.978;2023-03-11T01:17:17;1.80;99.90
27026;DHT22;14565;48.626;8.978;2023-03-11T01:19:42;1.80;99.90
27026;DHT22;14565;48.626;8.978;2023-03-11T01:22:09;1.70;99.90
27026;DHT22;14565;48.626;8.978;2023-03-11T01:24:35;1.70;99.90
27026;DHT22;14565;48.626;8.978;2023-03-11T01:27:00;1.60;99.90
27026;DHT22;14565;48.626;8.978;2023-03-11T01:29:26;1.60;99.90
27026;DHT22;14565;48.626;8.978;2023-03-11T01:31:52;1.50;99.90
27026;DHT22;14565;48.626;8.978;2023-03-11T01:34:17;1.60;99.90
27026;DHT22;14565;48.626;8.978;2023-03-11T01:36:43;1.50;99.90
27026;DHT22;14565;48.626;8.978;2023-03-11T01:39:09;1.60;99.90
27026;DHT22;14565;48.626;8.978;2023-03-11T01:41:34;1.60;99.90
27026;DHT22;14565;48.626;8.978;2023-03-11T01:44:00;1.60;99.90
27026;DHT22;14565;48.626;8.978;2023-03-11T01:46:30;1.50;99.90
27026;DHT22;14565;48.626;8.978;2023-03-11T01:48:59;1.50;99.90
27026;DHT22;14565;48.626;8.978;2023-03-11T01:51:37;1.40;99.90
27026;DHT22;14565;48.626;8.978;2023-03-11T01:54:13;1.40;99.90
27026;DHT22;14565;48.626;8.978;2023-03-11T01:56:41;1.40;99.90
27026;DHT22;14565;48.626;8.978;2023-03-11T01:59:08;1.40;99.90
27026;DHT22;14565;48.626;8.978;2023-03-11T02:01:39;1.30;99.90
27026;DHT22;14565;48.626;8.978;2023-03-11T02:04:08;1.30;99.90
27026;DHT22;14565;48.626;8.978;2023-03-11T02:06:34;1.30;99.90
27026;DHT22;14565;48.626;8.978;2023-03-11T02:09:00;1.20;99.90
27026;DHT22;14565;48.626;8.978;2023-03-11T02:11:27;1.30;99.90
27026;DHT22;14565;48.626;8.978;2023-03-11T02:13:58;1.30;99.90
27026;DHT22;14565;48.626;8.978;2023-03-11T02:16:24;1.30;99.90
27026;DHT22;14565;48.626;8.978;2023-03-11T02:18:50;1.30;99.90
27026;DHT22;14565;48.626;8.978;2023-03-11T02:21:28;1.10;99.90
27026;DHT22;14565;48.626;8.978;2023-03-11T02:24:18;1.20;99.90
27026;DHT22;14565;48.626;8.978;2023-03-11T02:26:55;1.20;99.90
27026;DHT22;14565;48.626;8.978;2023-03-11T02:29:24;1.00;99.90
27026;DHT22;14565;48.626;8.978;2023-03-11T02:31:51;1.00;99.90
27026;DHT22;14565;48.626;8.978;2023-03-11T02:34:24;1.00;99.90
27026;DHT22;14565;48.626;8.978;2023-03-11T02:36:50;1.00;99.90
27026;DHT22;14565;48.626;8.978;2023-03-11T02:39:26;1.10;99.90
27026;DHT22;14565;48.626;8.978;2023-03-11T02:41:53;1.00;99.90
27026;DHT22;14565;48.626;8.978;2023-03-11T02:44:18;1.20;99.90
27026;DHT22;14565;48.626;8.978;2023-03-11T02:46:44;1.10;99.90
27026;DHT22;14565;48.626;8.978;2023-03-11T02:49:10;1.10;99.90
27026;DHT22;14565;48.626;8.978;2023-03-11T02:51:36;1.00;99.90
27026;DHT22;14565;48.626;8.978;2023-03-11T02:54:04;0.90;99.90
27026;DHT22;14565;48.626;8.978;2023-03-11T02:56:30;0.90;99.90
27026;DHT22;14565;48.626;8.978;2023-03-11T02:58:56;0.80;99.90
27026;DHT22;14565;48.626;8.978;2023-03-11T03:01:22;0.70;99.90
27026;DHT22;14565;48.626;8.978;2023-03-11T03:03:48;0.70;99.90
27026;DHT22;14565;48.626;8.978;2023-03-11T03:06:13;0.70;99.90
27026;DHT22;14565;48.626;8.978;2023-03-11T03:08:39;0.60;99.90
27026;DHT22;14565;48.626;8.978;2023-03-11T03:11:06;0.50;99.90
27026;DHT22;14565;48.626;8.978;2023-03-11T03:13:31;0.50;99.90
27026;DHT22;14565;48.626;8.978;2023-03-11T03:15:57;0.30;99.90
27026;DHT22;14565;48.626;8.978;2023-03-11T03:18:23;0.40;99.90
27026;DHT22;14565;48.626;8.978;2023-03-11T03:20:50;0.30;99.90
27026;DHT22;14565;48.626;8.978;2023-03-11T03:23:16;0.20;99.90
27026;DHT22;14565;48.626;8.978;2023-03-11T03:25:43;0.20;99.90
27026;DHT22;14565;48.626;8.978;2023-03-11T03:28:10;0.20;99.90
27026;DHT22;14565;48.626;8.978;2023-03-11T03:30:36;0.20;99.90
27026;DHT22;14565;48.626;8.978;2023-03-11T03:33:03;0.10;99.90
27026;DHT22;14565;48.626;8.978;2023-03-11T03:35:28;-0.10;99.90
27026;DHT22;14565;48.626;8.978;2023-03-11T03:37:54;-0.10;99.90
27026;DHT22;14565;48.626;8.978;2023-03-11T03:40:22;-0.20;99.90
27026;DHT22;14565;48.626;8.978;2023-03-11T03:42:48;-0.20;99.90
27026;DHT22;14565;48.626;8.978;2023-03-11T03:45:13;-0.20;99.90
27026;DHT22;14565;48.626;8.978;2023-03-11T03:47:39;-0.20;99.90
27026;DHT22;14565;48.626;8.978;2023-03-11T03:50:07;-0.30;99.90
27026;DHT22;14565;48.626;8.978;2023-03-11T03:52:34;-0.30;99.90
27026;DHT22;14565;48.626;8.978;2023-03-11T03:55:00;-0.50;99.90
27026;DHT22;14565;48.626;8.978;2023-03-11T03:57:28;-0.40;99.90
27026;DHT22;14565;48.626;8.978;2023-03-11T03:59:54;-0.30;99.90
27026;DHT22;14565;48.626;8.978;2023-03-11T04:02:20;-0.40;99.90
27026;DHT22;14565;48.626;8.978;2023-03-11T04:04:46;-0.50;99.90
27026;DHT22;14565;48.626;8.978;2023-03-11T04:07:12;-0.60;99.90
27026;DHT22;14565;48.626;8.978;2023-03-11T04:09:39;-0.60;99.90
27026;DHT22;14565;48.626;8.978;2023-03-11T04:12:05;-0.50;99.90
27026;DHT22;14565;48.626;8.978;2023-03-11T04:14:30;-0.60;99.90
27026;DHT22;14565;48.626;8.978;2023-03-11T04:16:56;-0.70;99.90
27026;DHT22;14565;48.626;8.978;2023-03-11T04:19:23;-0.80;99.90
27026;DHT22;14565;48.626;8.978;2023-03-11T04:21:49;-0.80;99.90
27026;DHT22;14565;48.626;8.978;2023-03-11T04:24:17;-0.80;99.90
27026;DHT22;14565;48.626;8.978;2023-03-11T04:26:43;-0.70;99.90
27026;DHT22;14565;48.626;8.978;2023-03-11T04:29:09;-0.70;99.90
27026;DHT22;14565;48.626;8.978;2023-03-11T04:31:35;-0.80;99.90
27026;DHT22;14565;48.626;8.978;2023-03-11T04:34:00;-0.70;99.90
27026;DHT22;14565;48.626;8.978;2023-03-11T04:36:26;-0.70;99.90
27026;DHT22;14565;48.626;8.978;2023-03-11T04:38:52;-0.80;99.90
27026;DHT22;14565;48.626;8.978;2023-03-11T04:41:19;-0.80;99.90
27026;DHT22;14565;48.626;8.978;2023-03-11T04:43:45;-0.90;99.90
27026;DHT22;14565;48.626;8.978;2023-03-11T04:46:11;-1.00;99.90
27026;DHT22;14565;48.626;8.978;2023-03-11T04:48:36;-1.10;99.90
27026;DHT22;14565;48.626;8.978;2023-03-11T04:51:02;-1.10;99.90
27026;DHT22;14565;48.626;8.978;2023-03-11T04:53:28;-1.20;99.90
27026;DHT22;14565;48.626;8.978;2023-03-11T04:55:54;-1.10;99.90
27026;DHT22;14565;48.626;8.978;2023-03-11T04:58:20;-1.00;99.90
27026;DHT22;14565;48.626;8.978;2023-03-11T05:00:45;-1.10;99.90
27026;DHT22;14565;48.626;8.978;2023-03-11T05:03:11;-1.10;99.90
27026;DHT22;14565;48.626;8.978;2023-03-11T05:05:37;-1.10;99.90
27026;DHT22;14565;48.626;8.978;2023-03-11T05:08:03;-1.20;99.90
27026;DHT22;14565;48.626;8.978;2023-03-11T05:10:28;-1.20;99.90
27026;DHT22;14565;48.626;8.978;2023-03-11T05:12:54;-1.30;99.90
27026;DHT22;14565;48.626;8.978;2023-03-11T05:15:20;-1.20;99.90
27026;DHT22;14565;48.626;8.978;2023-03-11T05:17:46;-1.20;99.90
27026;DHT22;14565;48.626;8.978;2023-03-11T05:20:12;-1.30;99.90
27026;DHT22;14565;48.626;8.978;2023-03-11T05:22:38;-1.20;99.90
27026;DHT22;14565;48.626;8.978;2023-03-11T05:25:04;-1.20;99.90
27026;DHT22;14565;48.626;8.978;2023-03-11T05:27:30;-1.20;99.90
27026;DHT22;14565;48.626;8.978;2023-03-11T05:29:56;-1.20;99.90
27026;DHT22;14565;48.626;8.978;2023-03-11T05:32:21;-1.10;99.90
27026;DHT22;14565;48.626;8.978;2023-03-11T05:34:47;-1.20;99.90
27026;DHT22;14565;48.626;8.978;2023-03-11T05:37:13;-1.20;99.90
27026;DHT22;14565;48.626;8.978;2023-03-11T05:39:39;-1.20;99.90
27026;DHT22;14565;48.626;8.978;2023-03-11T05:42:05;-1.20;99.90
27026;DHT22;14565;48.626;8.978;2023-03-11T05:44:31;-1.20;99.90
27026;DHT22;14565;48.626;8.978;2023-03-11T05:46:57;-1.10;99.90
27026;DHT22;14565;48.626;8.978;2023-03-11T05:49:23;-1.20;99.90
27026;DHT22;14565;48.626;8.978;2023-03-11T05:51:49;-1.20;99.90
27026;DHT22;14565;48.626;8.978;2023-03-11T05:54:16;-1.20;99.90
27026;DHT22;14565;48.626;8.978;2023-03-11T05:56:43;-1.20;99.90
27026;DHT22;14565;48.626;8.978;2023-03-11T05:59:10;-1.20;99.90
27026;DHT22;14565;48.626;8.978;2023-03-11T06:01:36;-1.10;99.90
27026;DHT22;14565;48.626;8.978;2023-03-11T06:04:02;-1.00;99.90
27026;DHT22;14565;48.626;8.978;2023-03-11T06:06:28;-1.00;99.90
27026;DHT22;14565;48.626;8.978;2023-03-11T06:08:54;-0.90;99.90
27026;DHT22;14565;48.626;8.978;2023-03-11T06:11:20;-0.90;99.90
27026;DHT22;14565;48.626;8.978;2023-03-11T06:13:51;-1.00;99.90
27026;DHT22;14565;48.626;8.978;2023-03-11T06:16:18;-1.00;99.90
27026;DHT22;14565;48.626;8.978;2023-03-11T06:18:43;-1.00;99.90
27026;DHT22;14565;48.626;8.978;2023-03-11T06:21:21;-0.90;99.90
27026;DHT22;14565;48.626;8.978;2023-03-11T06:23:47;-0.90;99.90
27026;DHT22;14565;48.626;8.978;2023-03-11T06:26:16;-0.90;99.90
27026;DHT22;14565;48.626;8.978;2023-03-11T06:28:44;-0.90;99.90
27026;DHT22;14565;48.626;8.978;2023-03-11T06:31:23;-0.90;99.90
27026;DHT22;14565;48.626;8.978;2023-03-11T06:33:50;-0.90;99.90
27026;DHT22;14565;48.626;8.978;2023-03-11T06:36:18;-0.90;99.90
27026;DHT22;14565;48.626;8.978;2023-03-11T06:38:44;-0.70;99.90
27026;DHT22;14565;48.626;8.978;2023-03-11T06:41:11;-0.60;99.90
27026;DHT22;14565;48.626;8.978;2023-03-11T06:43:37;-0.40;99.90
27026;DHT22;14565;48.626;8.978;2023-03-11T06:46:16;-0.40;99.90
27026;DHT22;14565;48.626;8.978;2023-03-11T06:48:42;-0.40;99.90
27026;DHT22;14565;48.626;8.978;2023-03-11T06:51:09;-0.30;99.90
27026;DHT22;14565;48.626;8.978;2023-03-11T06:53:35;-0.20;99.90
27026;DHT22;14565;48.626;8.978;2023-03-11T06:58:27;0.00;99.90
27026;DHT22;14565;48.626;8.978;2023-03-11T07:00:53;0.10;99.90
27026;DHT22;14565;48.626;8.978;2023-03-11T07:03:19;0.30;99.90
27026;DHT22;14565;48.626;8.978;2023-03-11T07:05:45;0.30;99.90
27026;DHT22;14565;48.626;8.978;2023-03-11T07:08:10;0.70;99.90
27026;DHT22;14565;48.626;8.978;2023-03-11T07:10:36;0.70;99.90
27026;DHT22;14565;48.626;8.978;2023-03-11T07:13:02;0.70;99.90
27026;DHT22;14565;48.626;8.978;2023-03-11T07:15:27;0.60;99.90
27026;DHT22;14565;48.626;8.978;2023-03-11T07:17:53;0.80;99.90
27026;DHT22;14565;48.626;8.978;2023-03-11T07:20:19;1.00;99.90
27026;DHT22;14565;48.626;8.978;2023-03-11T07:22:44;1.30;99.90
27026;DHT22;14565;48.626;8.978;2023-03-11T07:25:10;1.60;99.90
27026;DHT22;14565;48.626;8.978;2023-03-11T07:27:35;1.30;99.90
27026;DHT22;14565;48.626;8.978;2023-03-11T07:30:02;1.20;99.90
27026;DHT22;14565;48.626;8.978;2023-03-11T07:32:28;1.40;99.90
27026;DHT22;14565;48.626;8.978;2023-03-11T07:34:53;1.50;99.90
27026;DHT22;14565;48.626;8.978;2023-03-11T07:37:19;1.30;99.90
27026;DHT22;14565;48.626;8.978;2023-03-11T07:39:44;1.00;99.90
27026;DHT22;14565;48.626;8.978;2023-03-11T07:42:10;1.10;99.90
27026;DHT22;14565;48.626;8.978;2023-03-11T07:44:36;1.60;99.90
27026;DHT22;14565;48.626;8.978;2023-03-11T07:47:03;1.70;99.90
27026;DHT22;14565;48.626;8.978;2023-03-11T07:49:29;1.80;99.90
27026;DHT22;14565;48.626;8.978;2023-03-11T07:51:55;1.70;99.90
27026;DHT22;14565;48.626;8.978;2023-03-11T07:54:20;1.80;99.90
27026;DHT22;14565;48.626;8.978;2023-03-11T07:56:46;2.00;99.90
27026;DHT22;14565;48.626;8.978;2023-03-11T07:59:12;2.20;99.90
27026;DHT22;14565;48.626;8.978;2023-03-11T08:01:38;2.20;99.90
27026;DHT22;14565;48.626;8.978;2023-03-11T08:04:07;2.40;99.90
27026;DHT22;14565;48.626;8.978;2023-03-11T08:06:35;2.40;99.90
27026;DHT22;14565;48.626;8.978;2023-03-11T08:09:03;2.80;99.90
27026;DHT22;14565;48.626;8.978;2023-03-11T08:11:30;2.50;99.90
27026;DHT22;14565;48.626;8.978;2023-03-11T08:13:56;2.50;99.90
27026;DHT22;14565;48.626;8.978;2023-03-11T08:16:25;2.30;99.90
27026;DHT22;14565;48.626;8.978;2023-03-11T08:18:51;2.20;99.90
27026;DHT22;14565;48.626;8.978;2023-03-11T08:21:20;2.20;99.90
27026;DHT22;14565;48.626;8.978;2023-03-11T08:23:47;2.00;99.90
27026;DHT22;14565;48.626;8.978;2023-03-11T08:26:15;2.50;99.90
27026;DHT22;14565;48.626;8.978;2023-03-11T08:28:42;2.80;99.90
27026;DHT22;14565;48.626;8.978;2023-03-11T08:31:13;3.00;99.90
27026;DHT22;14565;48.626;8.978;2023-03-11T08:33:39;3.20;99.90
27026;DHT22;14565;48.626;8.978;2023-03-11T08:36:05;3.50;99.90
27026;DHT22;14565;48.626;8.978;2023-03-11T08:38:31;3.20;99.90
27026;DHT22;14565;48.626;8.978;2023-03-11T08:40:56;3.30;99.90
27026;DHT22;14565;48.626;8.978;2023-03-11T08:43:22;3.40;99.90
27026;DHT22;14565;48.626;8.978;2023-03-11T08:45:48;3.30;99.90
27026;DHT22;14565;48.626;8.978;2023-03-11T08:48:14;3.50;99.90
27026;DHT22;14565;48.626;8.978;2023-03-11T08:50:41;3.00;99.90
27026;DHT22;14565;48.626;8.978;2023-03-11T08:53:07;2.70;99.90
27026;DHT22;14565;48.626;8.978;2023-03-11T08:55:33;2.60;99.90
27026;DHT22;14565;48.626;8.978;2023-03-11T08:57:59;2.70;99.90
27026;DHT22;14565;48.626;8.978;2023-03-11T09:00:25;2.50;99.90
27026;DHT22;14565;48.626;8.978;2023-03-11T09:02:51;2.40;99.90
27026;DHT22;14565;48.626;8.978;2023-03-11T09:05:17;2.70;99.90
27026;DHT22;14565;48.626;8.978;2023-03-11T09:07:43;3.00;99.90
27026;DHT22;14565;48.626;8.978;2023-03-11T09:10:12;2.80;99.90
27026;DHT22;14565;48.626;8.978;2023-03-11T09:12:39;2.40;99.90
27026;DHT22;14565;48.626;8.978;2023-03-11T09:15:05;2.60;99.90
27026;DHT22;14565;48.626;8.978;2023-03-11T09:17:31;2.60;99.90
27026;DHT22;14565;48.626;8.978;2023-03-11T09:19:56;2.70;99.90
27026;DHT22;14565;48.626;8.978;2023-03-11T09:22:22;2.90;99.90
27026;DHT22;14565;48.626;8.978;2023-03-11T09:24:48;3.50;99.90
27026;DHT22;14565;48.626;8.978;2023-03-11T09:27:13;3.50;99.90
27026;DHT22;14565;48.626;8.978;2023-03-11T09:29:40;3.90;99.90
27026;DHT22;14565;48.626;8.978;2023-03-11T09:32:06;4.00;99.90
27026;DHT22;14565;48.626;8.978;2023-03-11T09:34:32;3.50;99.90
27026;DHT22;14565;48.626;8.978;2023-03-11T09:36:59;3.20;99.90
27026;DHT22;14565;48.626;8.978;2023-03-11T09:39:25;2.80;99.90
27026;DHT22;14565;48.626;8.978;2023-03-11T09:41:56;2.40;99.90
27026;DHT22;14565;48.626;8.978;2023-03-11T09:50:34;2.60;99.90
27026;DHT22;14565;48.626;8.978;2023-03-11T09:55:53;3.40;99.90
27026;DHT22;14565;48.626;8.978;2023-03-11T09:58:39;4.10;99.90
27026;DHT22;14565;48.626;8.978;2023-03-11T10:04:12;4.80;99.90
27026;DHT22;14565;48.626;8.978;2023-03-11T10:06:40;4.90;99.90
27026;DHT22;14565;48.626;8.978;2023-03-11T10:14:42;4.70;99.90
27026;DHT22;14565;48.626;8.978;2023-03-11T10:19:54;4.70;99.90
27026;DHT22;14565;48.626;8.978;2023-03-11T10:27:36;4.70;99.90
27026;DHT22;14565;48.626;8.978;2023-03-11T10:30:30;4.60;99.90
27026;DHT22;14565;48.626;8.978;2023-03-11T10:33:01;4.20;99.90
27026;DHT22;14565;48.626;8.978;2023-03-11T10:35:40;3.70;99.90
27026;DHT22;14565;48.626;8.978;2023-03-11T10:38:22;3.40;99.90
27026;DHT22;14565;48.626;8.978;2023-03-11T10:40:54;3.60;99.90
27026;DHT22;14565;48.626;8.978;2023-03-11T10:43:28;3.10;99.90
27026;DHT22;14565;48.626;8.978;2023-03-11T10:45:56;2.60;99.90
27026;DHT22;14565;48.626;8.978;2023-03-11T10:48:24;2.90;99.90
27026;DHT22;14565;48.626;8.978;2023-03-11T10:51:03;3.20;99.90
27026;DHT22;14565;48.626;8.978;2023-03-11T10:53:45;3.10;99.90
27026;DHT22;14565;48.626;8.978;2023-03-11T10:58:48;3.50;99.90
27026;DHT22;14565;48.626;8.978;2023-03-11T11:01:16;3.70;99.90
27026;DHT22;14565;48.626;8.978;2023-03-11T11:03:44;3.90;99.90
27026;DHT22;14565;48.626;8.978;2023-03-11T11:06:34;4.20;99.90
27026;DHT22;14565;48.626;8.978;2023-03-11T11:09:14;4.00;99.90
27026;DHT22;14565;48.626;8.978;2023-03-11T11:11:41;4.10;99.90
27026;DHT22;14565;48.626;8.978;2023-03-11T11:14:07;3.50;99.90
27026;DHT22;14565;48.626;8.978;2023-03-11T11:16:34;3.20;99.90
27026;DHT22;14565;48.626;8.978;2023-03-11T11:19:04;3.70;99.90
27026;DHT22;14565;48.626;8.978;2023-03-11T11:24:24;4.30;99.90
27026;DHT22;14565;48.626;8.978;2023-03-11T11:29:31;5.00;99.90
27026;DHT22;14565;48.626;8.978;2023-03-11T11:32:33;5.00;99.90
27026;DHT22;14565;48.626;8.978;2023-03-11T11:35:04;4.90;99.90
27026;DHT22;14565;48.626;8.978;2023-03-11T11:37:34;4.80;99.90
27026;DHT22;14565;48.626;8.978;2023-03-11T11:43:00;4.50;99.90
27026;DHT22;14565;48.626;8.978;2023-03-11T11:48:02;4.30;99.90
27026;DHT22;14565;48.626;8.978;2023-03-11T11:50:51;4.20;99.90
27026;DHT22;14565;48.626;8.978;2023-03-11T11:53:38;3.90;99.90
27026;DHT22;14565;48.626;8.978;2023-03-11T11:56:05;3.90;99.90
27026;DHT22;14565;48.626;8.978;2023-03-11T11:58:31;4.00;99.90
27026;DHT22;14565;48.626;8.978;2023-03-11T12:01:13;4.30;99.90
27026;DHT22;14565;48.626;8.978;2023-03-11T12:06:18;4.60;99.90
27026;DHT22;14565;48.626;8.978;2023-03-11T12:11:25;4.50;99.90
27026;DHT22;14565;48.626;8.978;2023-03-11T12:15:32;4.30;99.90
27026;DHT22;14565;48.626;8.978;2023-03-11T12:17:27;4.20;99.90
27026;DHT22;14565;48.626;8.978;2023-03-11T12:20:32;4.10;99.90
27026;DHT22;14565;48.626;8.978;2023-03-11T12:23:21;4.10;99.90
27026;DHT22;14565;48.626;8.978;2023-03-11T12:26:03;4.30;99.90
27026;DHT22;14565;48.626;8.978;2023-03-11T12:28:55;4.20;99.90
27026;DHT22;14565;48.626;8.978;2023-03-11T12:31:24;4.50;99.90
27026;DHT22;14565;48.626;8.978;2023-03-11T12:34:10;4.00;99.90
27026;DHT22;14565;48.626;8.978;2023-03-11T12:36:41;3.60;99.90
27026;DHT22;14565;48.626;8.978;2023-03-11T12:41:45;3.90;99.90
27026;DHT22;14565;48.626;8.978;2023-03-11T12:44:26;4.00;99.90
27026;DHT22;14565;48.626;8.978;2023-03-11T12:54:43;4.10;99.90
27026;DHT22;14565;48.626;8.978;2023-03-11T13:11:41;4.40;99.90
27026;DHT22;14565;48.626;8.978;2023-03-11T13:16:41;4.70;99.90
27026;DHT22;14565;48.626;8.978;2023-03-11T13:21:55;4.80;98.50
27026;DHT22;14565;48.626;8.978;2023-03-11T13:40:38;5.40;99.90
27026;DHT22;14565;48.626;8.978;2023-03-11T13:43:13;5.50;99.90
27026;DHT22;14565;48.626;8.978;2023-03-11T13:45:40;4.90;99.90
27026;DHT22;14565;48.626;8.978;2023-03-11T13:48:18;5.00;99.90
27026;DHT22;14565;48.626;8.978;2023-03-11T13:50:59;5.20;99.90
27026;DHT22;14565;48.626;8.978;2023-03-11T13:53:34;5.50;99.90
27026;DHT22;14565;48.626;8.978;2023-03-11T13:56:02;5.20;99.20
27026;DHT22;14565;48.626;8.978;2023-03-11T13:58:28;5.20;99.20
27026;DHT22;14565;48.626;8.978;2023-03-11T14:00:56;5.10;99.90
27026;DHT22;14565;48.626;8.978;2023-03-11T14:03:23;4.90;99.70
27026;DHT22;14565;48.626;8.978;2023-03-11T14:08:29;4.80;99.90
27026;DHT22;14565;48.626;8.978;2023-03-11T14:10:58;4.80;99.90
27026;DHT22;14565;48.626;8.978;2023-03-11T14:13:27;4.90;99.90
27026;DHT22;14565;48.626;8.978;2023-03-11T14:18:41;5.20;99.90
27026;DHT22;14565;48.626;8.978;2023-03-11T14:21:25;5.10;99.90
27026;DHT22;14565;48.626;8.978;2023-03-11T14:23:53;5.40;99.90
27026;DHT22;14565;48.626;8.978;2023-03-11T14:28:53;5.40;99.40
27026;DHT22;14565;48.626;8.978;2023-03-11T14:39:04;5.30;99.50
27026;DHT22;14565;48.626;8.978;2023-03-11T14:41:30;5.80;99.90
27026;DHT22;14565;48.626;8.978;2023-03-11T14:43:56;5.80;98.70
27026;DHT22;14565;48.626;8.978;2023-03-11T14:46:26;5.60;98.80
27026;DHT22;14565;48.626;8.978;2023-03-11T14:48:55;5.90;99.70
27026;DHT22;14565;48.626;8.978;2023-03-11T14:51:25;6.20;99.00
27026;DHT22;14565;48.626;8.978;2023-03-11T14:56:28;6.30;98.10
27026;DHT22;14565;48.626;8.978;2023-03-11T15:01:34;6.00;99.00
27026;DHT22;14565;48.626;8.978;2023-03-11T15:06:39;5.50;99.90
27026;DHT22;14565;48.626;8.978;2023-03-11T15:09:18;5.40;99.90
27026;DHT22;14565;48.626;8.978;2023-03-11T15:14:35;5.60;99.90
27026;DHT22;14565;48.626;8.978;2023-03-11T15:19:46;5.50;99.90
27026;DHT22;14565;48.626;8.978;2023-03-11T15:22:37;5.50;99.90
27026;DHT22;14565;48.626;8.978;2023-03-11T15:25:16;5.70;99.90
27026;DHT22;14565;48.626;8.978;2023-03-11T15:27:42;5.90;99.80
27026;DHT22;14565;48.626;8.978;2023-03-11T15:32:45;5.60;99.90
27026;DHT22;14565;48.626;8.978;2023-03-11T15:35:28;5.70;99.60
27026;DHT22;14565;48.626;8.978;2023-03-11T15:41:00;6.00;99.70
27026;DHT22;14565;48.626;8.978;2023-03-11T15:43:31;5.60;99.10
27026;DHT22;14565;48.626;8.978;2023-03-11T15:45:59;5.60;99.40
27026;DHT22;14565;48.626;8.978;2023-03-11T15:48:26;5.10;99.90
27026;DHT22;14565;48.626;8.978;2023-03-11T15:50:56;5.30;99.90
27026;DHT22;14565;48.626;8.978;2023-03-11T15:53:24;5.30;99.90
27026;DHT22;14565;48.626;8.978;2023-03-11T15:55:59;5.20;99.90
27026;DHT22;14565;48.626;8.978;2023-03-11T15:58:27;5.10;99.90
27026;DHT22;14565;48.626;8.978;2023-03-11T16:00:55;5.00;99.90
27026;DHT22;14565;48.626;8.978;2023-03-11T16:03:21;4.90;99.90
27026;DHT22;14565;48.626;8.978;2023-03-11T16:05:53;5.00;99.90
27026;DHT22;14565;48.626;8.978;2023-03-11T16:08:22;4.80;99.90
27026;DHT22;14565;48.626;8.978;2023-03-11T16:10:47;4.70;99.90
27026;DHT22;14565;48.626;8.978;2023-03-11T16:13:14;4.60;99.90
27026;DHT22;14565;48.626;8.978;2023-03-11T16:15:40;4.60;99.90
27026;DHT22;14565;48.626;8.978;2023-03-11T16:18:07;4.70;99.90
27026;DHT22;14565;48.626;8.978;2023-03-11T16:20:40;4.60;99.90
27026;DHT22;14565;48.626;8.978;2023-03-11T16:23:11;4.70;99.90
27026;DHT22;14565;48.626;8.978;2023-03-11T16:25:39;4.50;99.90
27026;DHT22;14565;48.626;8.978;2023-03-11T16:28:05;4.50;99.90
27026;DHT22;14565;48.626;8.978;2023-03-11T16:30:32;4.30;99.90
27026;DHT22;14565;48.626;8.978;2023-03-11T16:32:59;4.30;99.90
27026;DHT22;14565;48.626;8.978;2023-03-11T16:35:25;4.20;99.90
27026;DHT22;14565;48.626;8.978;2023-03-11T16:37:52;4.20;99.90
27026;DHT22;14565;48.626;8.978;2023-03-11T16:40:20;4.30;99.90
27026;DHT22;14565;48.626;8.978;2023-03-11T16:42:47;4.20;99.90
27026;DHT22;14565;48.626;8.978;2023-03-11T16:45:15;4.20;99.90
27026;DHT22;14565;48.626;8.978;2023-03-11T16:47:41;4.30;99.90
27026;DHT22;14565;48.626;8.978;2023-03-11T16:50:07;4.10;99.90
27026;DHT22;14565;48.626;8.978;2023-03-11T16:52:33;4.00;99.90
27026;DHT22;14565;48.626;8.978;2023-03-11T16:54:58;4.00;99.90
27026;DHT22;14565;48.626;8.978;2023-03-11T16:57:24;4.10;99.90
27026;DHT22;14565;48.626;8.978;2023-03-11T16:59:50;4.00;99.90
27026;DHT22;14565;48.626;8.978;2023-03-11T17:02:16;4.00;99.90
27026;DHT22;14565;48.626;8.978;2023-03-11T17:04:42;4.00;99.90
27026;DHT22;14565;48.626;8.978;2023-03-11T17:07:08;3.90;99.90
27026;DHT22;14565;48.626;8.978;2023-03-11T17:09:35;3.90;99.90
27026;DHT22;14565;48.626;8.978;2023-03-11T17:12:02;4.00;99.90
27026;DHT22;14565;48.626;8.978;2023-03-11T17:14:28;3.70;99.90
27026;DHT22;14565;48.626;8.978;2023-03-11T17:16:54;3.70;99.90
27026;DHT22;14565;48.626;8.978;2023-03-11T17:19:19;3.60;99.90
27026;DHT22;14565;48.626;8.978;2023-03-11T17:21:45;3.60;99.90
27026;DHT22;14565;48.626;8.978;2023-03-11T17:24:11;3.60;99.90
27026;DHT22;14565;48.626;8.978;2023-03-11T17:26:37;3.50;99.90
27026;DHT22;14565;48.626;8.978;2023-03-11T17:29:03;3.60;99.90
27026;DHT22;14565;48.626;8.978;2023-03-11T17:31:29;3.50;99.90
27026;DHT22;14565;48.626;8.978;2023-03-11T17:33:55;3.30;99.90
27026;DHT22;14565;48.626;8.978;2023-03-11T17:36:23;3.30;99.90
27026;DHT22;14565;48.626;8.978;2023-03-11T17:38:51;3.20;99.90
27026;DHT22;14565;48.626;8.978;2023-03-11T17:41:17;3.10;99.90
27026;DHT22;14565;48.626;8.978;2023-03-11T17:43:44;3.00;99.90
27026;DHT22;14565;48.626;8.978;2023-03-11T17:46:12;2.90;99.90
27026;DHT22;14565;48.626;8.978;2023-03-11T17:48:39;2.80;99.90
27026;DHT22;14565;48.626;8.978;2023-03-11T17:51:10;2.80;99.90
27026;DHT22;14565;48.626;8.978;2023-03-11T17:53:38;2.70;99.90
27026;DHT22;14565;48.626;8.978;2023-03-11T17:56:04;2.60;99.90
27026;DHT22;14565;48.626;8.978;2023-03-11T17:58:30;2.60;99.90